Aérodrome :
LOGIN :

S'inscrire | Disclaimer

   EN    FR    IT 

 










Légende :    VFR   VFR Marginal   IFR   IFR Intensif   IFR Très Intensif
Visi : 
Plafond : 
>= 8 km
>= 3000ft
5 à 8 km
1000 à 3000 ft
1500m à 5 km
500 à 1000 ft
800 à 1500m
200 à 500 ft
< 800m
< 200 ft
Symboles :   Orages  Brouillard  Fortes neiges  Fortes précipitations  Vent > 20 kt
SIGMETs :   Divers  Orages  Givrage  Turbulence  Onde Orograph.  Cendres Volcan.







- Altitude de l'aérodrome : 106 ft
- Code IATA : XDA
- Voir les cartes d'approche


LFBY - Dax Seyresse

DERNIER METAR :
  • 171430Z AUTO 30010KT 260V350 9999 // ////// 22/11 Q1022

METARs EXPIRÉS :
  • 171400Z AUTO 31010KT 240V350 9999 // ////// 23/12 Q1022
  • 171330Z AUTO 31010KT 260V360 9999 // ////// 23/11 Q1022
  • 171300Z AUTO 29010KT 260V340 9999 // ////// 22/12 Q1022
  • 171230Z AUTO 29008KT 260V340 9999 // ////// 23/12 Q1022
  • 171200Z AUTO 31005KT 210V360 9999 // ////// 22/16 Q1022

Prévision TAF périmée.
Pas de NOTAMs connus pour ce terrain.
3 SIGMETs publiés pour la FIR Bordeaux (LFBB) :
 
Annulation du SIGMET 6 
LFBB SIGMET 9 VALID 171235/171400 LFPW
LFBB BORDEAUX FIR/UIR CNL SIGMET 6 171150/171400=
Orages noyés dans la masse
LFBB SIGMET 8 VALID 171200/171400 LFPW
LFBB BORDEAUX FIR/UIR EMBD TS OBS WI N4545 E00300 - N4500 E00245 - N4530 E00200 - N4545 E00300 TOP FL380 MOV E 5KT NC=
Turbulence forte
LFBB SIGMET 10 VALID 171400/171800 LFPW
LFBB BORDEAUX FIR/UIR SEV TURB FCST WI N4715 E00130 - N4715 E00200 - N4630 E00245 - N4400 E00115 - N4400 E00000 - N4630 E00045 - N4715 E00130 FL230/340 MOV E 10KT NC=



MET'MAP, la Météo Aéronautique d'un coup d'oeil ! - Copyright ORBIFLY Décembre 2007 - Disclaimer

ORBIFLY MET'MAP TEAM :

Programmation & Développement : Alexandra Zaïnal
Conception & Développement : Baudouin d'Aumeries
Co-Programmation & Développement : Marc-Olivier Méhu
Soutien technique & logistique : Manuel Goepfert

Contact : metmap@orbifly.com




SOURCES & CREDITS :

   NOAA